createdAt,value
2019-04-27T00:04:32.879Z,28.10
2019-04-27T00:07:04.994Z,28.10
2019-04-27T00:09:37.114Z,28.20
2019-04-27T00:12:09.180Z,28.20
2019-04-27T00:14:40.249Z,28.30
2019-04-27T00:17:12.907Z,28.40
2019-04-27T00:19:45.211Z,28.40
2019-04-27T00:22:17.330Z,28.40
2019-04-27T00:24:48.009Z,28.50
2019-04-27T00:27:19.166Z,28.50
2019-04-27T00:29:49.862Z,28.70
2019-04-27T00:32:20.769Z,28.70
2019-04-27T00:34:53.156Z,28.80
2019-04-27T00:37:25.204Z,28.90
2019-04-27T00:39:57.184Z,29.00
2019-04-27T00:42:27.916Z,29.10
2019-04-27T00:44:58.632Z,29.20
2019-04-27T00:47:29.314Z,29.30
2019-04-27T00:50:00.462Z,29.30
2019-04-27T00:52:32.607Z,29.50
2019-04-27T00:55:03.250Z,29.50
2019-04-27T00:57:35.458Z,29.60
2019-04-27T01:00:08.931Z,29.70
2019-04-27T01:02:41.123Z,29.80
2019-04-27T01:05:13.356Z,29.90
2019-04-27T01:07:44.264Z,29.90
2019-04-27T01:10:15.131Z,30.00
2019-04-27T01:12:46.141Z,30.00
2019-04-27T01:15:17.048Z,30.10
2019-04-27T01:17:49.032Z,30.10
2019-04-27T01:20:19.926Z,30.20
2019-04-27T01:22:50.625Z,30.40
2019-04-27T01:25:22.692Z,30.50
2019-04-27T01:27:54.795Z,30.50
2019-04-27T01:30:27.020Z,30.60
2019-04-27T01:33:00.510Z,30.60
2019-04-27T01:35:31.311Z,30.70
2019-04-27T01:38:02.212Z,30.70
2019-04-27T01:40:32.975Z,30.80
2019-04-27T01:43:03.847Z,30.70
2019-04-27T01:45:34.589Z,30.70
2019-04-27T01:48:05.421Z,30.70
2019-04-27T01:50:36.599Z,30.70
2019-04-27T01:53:08.855Z,30.80
2019-04-27T01:55:40.770Z,30.80
2019-04-27T01:58:11.694Z,30.90
2019-04-27T02:00:45.524Z,31.00
2019-04-27T02:03:17.509Z,31.00
2019-04-27T02:05:49.663Z,31.20
2019-04-27T02:08:20.447Z,31.20
2019-04-27T02:10:59.358Z,31.30
2019-04-27T02:13:29.142Z,31.40
2019-04-27T02:15:59.994Z,31.40
2019-04-27T02:18:37.555Z,31.50
2019-04-27T02:21:03.212Z,31.60
2019-04-27T02:23:33.820Z,31.70
2019-04-27T02:26:05.219Z,31.80
2019-04-27T02:29:08.782Z,31.80
2019-04-27T02:31:40.897Z,31.90
2019-04-27T02:34:13.189Z,31.80
2019-04-27T02:36:44.882Z,31.90
2019-04-27T02:39:15.548Z,31.90
2019-04-27T02:41:46.522Z,32.00
2019-04-27T02:44:19.954Z,32.10
2019-04-27T02:46:50.835Z,32.10
2019-04-27T02:49:22.023Z,32.20
2019-04-27T02:51:54.132Z,32.20
2019-04-27T02:54:24.940Z,32.30
2019-04-27T02:56:55.726Z,32.30
2019-04-27T02:59:26.684Z,32.40
2019-04-27T03:02:00.799Z,32.40
2019-04-27T03:04:30.899Z,32.40
2019-04-27T03:07:01.824Z,32.40
2019-04-27T03:09:32.747Z,32.50
2019-04-27T03:12:25.425Z,32.50
2019-04-27T03:14:59.420Z,32.50
2019-04-27T03:17:31.265Z,32.60
2019-04-27T03:23:12.188Z,32.70
2019-04-27T03:25:44.153Z,32.70
2019-04-27T03:28:15.703Z,32.80
2019-04-27T03:30:46.775Z,32.90
2019-04-27T03:33:21.656Z,33.00
2019-04-27T03:35:52.519Z,33.00
2019-04-27T03:41:12.401Z,33.00
2019-04-27T03:43:43.269Z,33.10
2019-04-27T03:46:14.240Z,33.10
2019-04-27T03:48:45.045Z,33.10
2019-04-27T03:51:21.428Z,33.20
2019-04-27T03:53:55.437Z,33.20
2019-04-27T03:56:26.646Z,33.30
2019-04-27T03:58:59.759Z,33.40
2019-04-27T04:01:30.834Z,33.50
2019-04-27T04:04:01.867Z,33.50
2019-04-27T04:06:32.866Z,33.60
2019-04-27T04:09:06.214Z,33.60
2019-04-27T04:11:39.531Z,33.60
2019-04-27T04:14:11.848Z,33.70
2019-04-27T04:16:43.879Z,33.80
2019-04-27T04:19:15.947Z,33.80
2019-04-27T04:25:10.369Z,33.90
2019-04-27T04:27:42.496Z,34.00
2019-04-27T04:33:25.650Z,34.10
2019-04-27T04:35:59.640Z,34.10
2019-04-27T04:38:30.516Z,34.20
2019-04-27T04:41:02.828Z,34.20
2019-04-27T04:43:35.049Z,34.30
2019-04-27T04:46:09.790Z,34.40
2019-04-27T04:48:40.223Z,34.40
2019-04-27T04:51:10.276Z,34.50
2019-04-27T04:53:41.422Z,34.60
2019-04-27T04:56:12.642Z,34.60
2019-04-27T04:59:20.560Z,34.70
2019-04-27T05:01:54.168Z,34.70
2019-04-27T05:04:25.041Z,34.80
2019-04-27T05:06:55.951Z,34.80
2019-04-27T05:09:30.716Z,34.90
2019-04-27T05:12:01.742Z,34.90
2019-04-27T05:14:32.477Z,34.90
2019-04-27T05:17:03.447Z,34.90
2019-04-27T05:19:34.537Z,34.90
2019-04-27T05:22:09.211Z,34.90
2019-04-27T05:24:41.862Z,35.00
2019-04-27T05:27:35.773Z,35.10
2019-04-27T05:30:30.408Z,35.20
2019-04-27T05:33:18.825Z,35.20
2019-04-27T05:35:49.847Z,35.30
2019-04-27T05:38:25.164Z,35.30
2019-04-27T05:40:56.151Z,35.40
2019-04-27T05:43:30.179Z,35.50
2019-04-27T05:46:04.210Z,35.50
2019-04-27T05:48:36.166Z,35.50
2019-04-27T05:51:07.050Z,35.60
2019-04-27T05:53:39.451Z,35.60
2019-04-27T05:56:10.650Z,35.60
2019-04-27T05:58:42.078Z,35.60
2019-04-27T06:01:13.150Z,35.60
2019-04-27T06:03:43.980Z,35.60
2019-04-27T06:06:14.878Z,35.70
2019-04-27T06:08:45.775Z,35.70
2019-04-27T06:11:16.914Z,35.80
2019-04-27T06:13:49.264Z,35.90
2019-04-27T06:16:20.240Z,35.90
2019-04-27T06:18:51.202Z,36.00
2019-04-27T06:21:22.769Z,36.10
2019-04-27T06:23:53.903Z,36.00
2019-04-27T06:26:24.600Z,36.10
2019-04-27T06:28:55.457Z,36.20
2019-04-27T06:31:26.243Z,36.30
2019-04-27T06:33:56.975Z,36.30
2019-04-27T06:36:30.364Z,36.30
2019-04-27T06:39:01.259Z,36.40
2019-04-27T06:41:32.799Z,36.40
2019-04-27T06:44:04.335Z,36.40
2019-04-27T06:46:35.285Z,36.40
2019-04-27T06:49:06.054Z,36.40
2019-04-27T06:51:36.798Z,36.40
2019-04-27T06:54:09.147Z,36.40
2019-04-27T06:56:39.729Z,36.50
2019-04-27T06:59:10.508Z,36.50
2019-04-27T07:01:41.475Z,36.50
2019-04-27T07:04:12.419Z,36.50
2019-04-27T07:06:53.226Z,36.50
2019-04-27T07:09:20.010Z,36.50
2019-04-27T07:11:50.952Z,36.50
2019-04-27T07:14:22.166Z,36.40
2019-04-27T07:16:53.055Z,36.40
2019-04-27T07:19:24.412Z,36.40
2019-04-27T07:21:55.372Z,36.40
2019-04-27T07:24:26.265Z,36.40
2019-04-27T07:26:57.191Z,36.50
2019-04-27T07:29:29.224Z,36.50
2019-04-27T07:32:00.497Z,36.50
2019-04-27T07:34:31.293Z,36.60
2019-04-27T07:37:02.083Z,36.60
2019-04-27T07:39:33.204Z,36.70
2019-04-27T07:42:03.897Z,36.80
2019-04-27T07:44:38.962Z,36.80
2019-04-27T07:47:11.547Z,36.80
2019-04-27T07:49:43.883Z,36.80
2019-04-27T07:52:15.811Z,36.90
2019-04-27T07:54:49.076Z,36.90
2019-04-27T07:57:19.832Z,36.90
2019-04-27T07:59:50.744Z,37.00
2019-04-27T08:02:21.791Z,37.00
2019-04-27T08:04:52.653Z,37.00
2019-04-27T08:07:23.633Z,37.10
2019-04-27T08:09:54.656Z,37.10
2019-04-27T08:12:25.585Z,37.00
2019-04-27T08:14:56.649Z,36.90
2019-04-27T08:17:28.276Z,36.80
2019-04-27T08:20:00.720Z,36.80
2019-04-27T08:22:31.720Z,36.70
2019-04-27T08:25:02.690Z,36.70
2019-04-27T08:27:35.077Z,36.70
2019-04-27T08:30:09.804Z,36.60
2019-04-27T08:32:41.885Z,36.60
2019-04-27T08:35:13.029Z,36.70
2019-04-27T08:37:43.780Z,36.70
2019-04-27T08:40:15.978Z,36.70
2019-04-27T08:42:46.914Z,36.70
2019-04-27T08:45:19.187Z,36.60
2019-04-27T08:47:50.238Z,36.60
2019-04-27T08:50:21.248Z,36.50
2019-04-27T08:52:52.179Z,36.40
2019-04-27T08:55:23.571Z,36.30
2019-04-27T08:57:54.405Z,36.30
2019-04-27T09:00:25.593Z,36.20
2019-04-27T09:02:59.492Z,36.10
2019-04-27T09:05:30.438Z,35.90
2019-04-27T09:08:01.290Z,35.60
2019-04-27T09:10:33.538Z,35.20
2019-04-27T09:13:05.717Z,34.80
2019-04-27T09:15:39.177Z,34.50
2019-04-27T09:18:10.817Z,34.20
2019-04-27T09:20:44.134Z,33.90
2019-04-27T09:23:15.634Z,33.70
2019-04-27T09:25:47.042Z,33.50
2019-04-27T09:28:17.929Z,33.30
2019-04-27T09:30:49.789Z,33.10
2019-04-27T09:33:22.243Z,32.90
2019-04-27T09:35:53.405Z,32.70
2019-04-27T09:38:26.264Z,32.60
2019-04-27T09:40:58.073Z,32.60
2019-04-27T09:43:28.843Z,32.60
2019-04-27T09:45:59.870Z,32.60
2019-04-27T09:48:30.663Z,32.70
2019-04-27T09:51:01.804Z,32.80
2019-04-27T09:53:32.558Z,32.80
2019-04-27T09:56:03.446Z,33.00
2019-04-27T09:58:39.015Z,33.10
2019-04-27T10:01:10.025Z,33.20
2019-04-27T10:03:40.952Z,33.20
2019-04-27T10:06:11.797Z,33.30
2019-04-27T10:08:44.722Z,33.40
2019-04-27T10:11:16.245Z,33.40
2019-04-27T10:13:47.850Z,33.50
2019-04-27T10:16:18.636Z,33.50
2019-04-27T10:18:49.450Z,33.60
2019-04-27T10:21:20.442Z,33.60
2019-04-27T10:23:51.391Z,33.70
2019-04-27T10:26:22.142Z,33.70
2019-04-27T10:28:53.136Z,33.60
2019-04-27T10:31:23.944Z,33.60
2019-04-27T10:33:55.971Z,33.70
2019-04-27T10:36:28.334Z,33.60
2019-04-27T10:38:59.241Z,33.60
2019-04-27T10:41:30.016Z,33.60
2019-04-27T10:44:01.347Z,33.60
2019-04-27T10:46:32.108Z,33.60
2019-04-27T10:49:03.340Z,33.60
2019-04-27T10:51:34.141Z,33.60
2019-04-27T10:54:06.655Z,33.50
2019-04-27T10:56:37.995Z,33.60
2019-04-27T10:59:09.774Z,33.50
2019-04-27T11:01:40.729Z,33.50
2019-04-27T11:04:12.850Z,33.50
2019-04-27T11:06:45.087Z,33.50
2019-04-27T11:09:16.402Z,33.50
2019-04-27T11:11:47.307Z,33.50
2019-04-27T11:14:18.263Z,33.50
2019-04-27T11:16:49.073Z,33.40
2019-04-27T11:19:19.947Z,33.40
2019-04-27T11:21:50.721Z,33.40
2019-04-27T11:24:21.701Z,33.40
2019-04-27T11:26:52.626Z,33.30
2019-04-27T11:29:23.378Z,33.30
2019-04-27T11:31:55.515Z,33.30
2019-04-27T11:34:27.803Z,33.30
2019-04-27T11:36:59.893Z,33.30
2019-04-27T11:39:30.778Z,33.30
2019-04-27T11:42:01.706Z,33.30
2019-04-27T11:44:32.732Z,33.40
2019-04-27T11:47:03.610Z,33.40
2019-04-27T11:49:35.947Z,33.40
2019-04-27T11:52:06.905Z,33.40
2019-04-27T11:54:37.753Z,33.40
2019-04-27T11:57:08.574Z,33.40
2019-04-27T11:59:39.520Z,33.40
2019-04-27T12:02:10.283Z,33.40
2019-04-27T12:04:41.188Z,33.30
2019-04-27T12:07:11.973Z,33.30
2019-04-27T12:09:42.921Z,33.30
2019-04-27T12:12:19.451Z,33.30
2019-04-27T12:14:47.542Z,33.30
2019-04-27T12:17:18.533Z,33.30
2019-04-27T12:19:49.373Z,33.30
2019-04-27T12:22:20.776Z,33.20
2019-04-27T12:24:51.611Z,33.30
2019-04-27T12:27:23.794Z,33.30
2019-04-27T12:29:56.013Z,33.30
2019-04-27T12:32:27.836Z,33.30
2019-04-27T12:34:58.788Z,33.30
2019-04-27T12:37:29.805Z,33.20
2019-04-27T12:40:00.590Z,33.30
2019-04-27T12:42:31.591Z,33.20
2019-04-27T12:45:02.421Z,33.20
2019-04-27T12:47:33.309Z,33.20
2019-04-27T12:50:06.073Z,33.10
2019-04-27T12:52:36.755Z,33.10
2019-04-27T12:55:10.481Z,33.10
2019-04-27T12:57:45.089Z,33.00
2019-04-27T13:00:17.339Z,33.00
2019-04-27T13:02:48.191Z,32.90
2019-04-27T13:05:19.068Z,32.90
2019-04-27T13:07:49.763Z,32.90
2019-04-27T13:10:20.891Z,32.90
2019-04-27T13:12:51.729Z,32.80
2019-04-27T13:15:22.817Z,32.80
2019-04-27T13:17:55.580Z,32.80
2019-04-27T13:20:26.180Z,32.70
2019-04-27T13:22:57.137Z,32.70
2019-04-27T13:25:28.166Z,32.70
2019-04-27T13:27:59.002Z,32.60
2019-04-27T13:30:32.680Z,32.60
2019-04-27T13:33:03.452Z,32.50
2019-04-27T13:35:34.427Z,32.50
2019-04-27T13:38:06.588Z,32.50
2019-04-27T13:40:38.735Z,32.40
2019-04-27T13:43:10.719Z,32.40
2019-04-27T13:45:42.995Z,32.40
2019-04-27T13:48:15.080Z,32.40
2019-04-27T13:50:47.223Z,32.40
2019-04-27T13:53:18.202Z,32.30
2019-04-27T13:55:49.056Z,32.30
2019-04-27T13:58:20.028Z,32.20
2019-04-27T14:00:50.631Z,32.20
2019-04-27T14:03:21.633Z,32.20
2019-04-27T14:05:52.660Z,32.20
2019-04-27T14:08:24.796Z,32.20
2019-04-27T14:10:55.746Z,32.10
2019-04-27T14:13:28.387Z,32.10
2019-04-27T14:15:59.261Z,32.10
2019-04-27T14:18:30.213Z,32.00
2019-04-27T14:21:01.291Z,32.00
2019-04-27T14:23:33.318Z,32.00
2019-04-27T14:26:04.431Z,31.90
2019-04-27T14:28:35.156Z,31.90
2019-04-27T14:31:05.969Z,31.90
2019-04-27T14:33:39.548Z,31.90
2019-04-27T14:36:09.213Z,31.90
2019-04-27T14:38:40.151Z,31.80
2019-04-27T14:41:11.308Z,31.70
2019-04-27T14:43:42.100Z,31.70
2019-04-27T14:46:13.169Z,31.70
2019-04-27T14:48:43.932Z,31.60
2019-04-27T14:51:14.976Z,31.60
2019-04-27T14:53:45.925Z,31.60
2019-04-27T14:56:18.487Z,31.50
2019-04-27T14:58:49.505Z,31.50
2019-04-27T15:01:20.642Z,31.50
2019-04-27T15:03:51.634Z,31.50
2019-04-27T15:06:22.604Z,31.50
2019-04-27T15:08:53.390Z,31.50
2019-04-27T15:11:24.465Z,31.50
2019-04-27T15:13:59.276Z,31.40
2019-04-27T15:16:27.480Z,31.40
2019-04-27T15:18:59.993Z,31.30
2019-04-27T15:21:32.630Z,31.30
2019-04-27T15:24:09.322Z,31.30
2019-04-27T15:26:36.169Z,31.30
2019-04-27T15:29:08.288Z,31.30
2019-04-27T15:31:40.875Z,31.30
2019-04-27T15:34:11.678Z,31.30
2019-04-27T15:36:43.796Z,31.20
2019-04-27T15:39:16.025Z,31.20
2019-04-27T15:41:48.442Z,31.20
2019-04-27T15:44:19.121Z,31.10
2019-04-27T15:46:49.919Z,31.10
2019-04-27T15:49:20.766Z,31.10
2019-04-27T15:51:54.840Z,31.10
2019-04-27T15:54:28.707Z,31.10
2019-04-27T15:56:57.689Z,31.10
2019-04-27T15:59:30.989Z,31.00
2019-04-27T16:02:05.603Z,31.00
2019-04-27T16:04:34.645Z,30.90
2019-04-27T16:07:05.781Z,30.90
2019-04-27T16:09:38.619Z,30.90
2019-04-27T16:12:12.558Z,30.90
2019-04-27T16:14:44.117Z,30.90
2019-04-27T16:17:13.700Z,30.90
2019-04-27T16:19:48.942Z,30.90
2019-04-27T16:22:18.303Z,30.90
2019-04-27T16:24:49.447Z,30.80
2019-04-27T16:27:21.050Z,30.80
2019-04-27T16:29:52.071Z,30.80
2019-04-27T16:32:23.035Z,30.80
2019-04-27T16:34:54.080Z,30.70
2019-04-27T16:37:28.392Z,30.70
2019-04-27T16:39:58.929Z,30.70
2019-04-27T16:42:30.736Z,30.70
2019-04-27T16:45:01.516Z,30.60
2019-04-27T16:47:32.411Z,30.60
2019-04-27T16:50:03.325Z,30.50
2019-04-27T16:52:34.281Z,30.50
2019-04-27T16:55:05.627Z,30.40
2019-04-27T16:57:37.254Z,30.40
2019-04-27T17:00:11.046Z,30.40
2019-04-27T17:02:42.138Z,30.40
2019-04-27T17:05:15.525Z,30.30
2019-04-27T17:07:46.140Z,30.30
2019-04-27T17:10:25.495Z,30.30
2019-04-27T17:12:51.206Z,30.30
2019-04-27T17:15:22.946Z,30.20
2019-04-27T17:17:54.828Z,30.20
2019-04-27T17:20:25.698Z,30.20
2019-04-27T17:22:58.048Z,30.20
2019-04-27T17:25:30.496Z,30.20
2019-04-27T17:28:04.078Z,30.20
2019-04-27T17:30:37.949Z,30.20
2019-04-27T17:33:11.973Z,30.20
2019-04-27T17:35:42.713Z,30.20
2019-04-27T17:38:13.487Z,30.20
2019-04-27T17:40:44.748Z,30.20
2019-04-27T17:43:15.590Z,30.20
2019-04-27T17:45:48.462Z,30.20
2019-04-27T17:48:19.197Z,30.20
2019-04-27T17:50:55.896Z,30.30
2019-04-27T17:53:29.154Z,30.20
2019-04-27T17:56:02.674Z,30.20
2019-04-27T17:58:29.902Z,30.20
2019-04-27T18:01:00.911Z,30.20
2019-04-27T18:03:31.805Z,30.20
2019-04-27T18:06:02.654Z,30.20
2019-04-27T18:08:33.768Z,30.10
2019-04-27T18:11:04.771Z,30.10
2019-04-27T18:13:42.041Z,30.10
2019-04-27T18:16:11.918Z,30.00
2019-04-27T18:18:42.431Z,30.00
2019-04-27T18:21:19.490Z,30.00
2019-04-27T18:23:55.106Z,30.00
2019-04-27T18:26:23.687Z,29.90
2019-04-27T18:28:57.949Z,29.90
2019-04-27T18:31:28.922Z,29.90
2019-04-27T18:34:00.742Z,29.90
2019-04-27T18:36:31.675Z,29.90
2019-04-27T18:39:05.535Z,29.90
2019-04-27T18:41:34.845Z,29.90
2019-04-27T18:44:06.156Z,29.80
2019-04-27T18:46:38.404Z,29.80
2019-04-27T18:49:13.563Z,29.80
2019-04-27T18:51:45.564Z,29.70
2019-04-27T18:54:18.286Z,29.80
2019-04-27T18:57:01.460Z,29.80
2019-04-27T18:59:20.868Z,29.80
2019-04-27T19:01:51.925Z,29.70
2019-04-27T19:04:22.808Z,29.70
2019-04-27T19:06:53.726Z,29.70
2019-04-27T19:09:24.545Z,29.70
2019-04-27T19:11:56.695Z,29.60
2019-04-27T19:14:28.275Z,29.60
2019-04-27T19:16:59.294Z,29.60
2019-04-27T19:19:30.188Z,29.60
2019-04-27T19:22:00.775Z,29.60
2019-04-27T19:24:31.704Z,29.60
2019-04-27T19:27:15.275Z,29.60
2019-04-27T19:29:38.171Z,29.60
2019-04-27T19:32:09.328Z,29.50
2019-04-27T19:34:40.214Z,29.50
2019-04-27T19:37:11.065Z,29.50
2019-04-27T19:39:41.943Z,29.50
2019-04-27T19:42:12.693Z,29.40
2019-04-27T19:44:43.694Z,29.40
2019-04-27T19:47:14.636Z,29.40
2019-04-27T19:49:46.513Z,29.40
2019-04-27T19:52:22.581Z,29.40
2019-04-27T19:54:53.026Z,29.40
2019-04-27T19:57:34.985Z,29.30
2019-04-27T19:59:58.827Z,29.30
2019-04-27T20:02:29.643Z,29.30
2019-04-27T20:05:01.764Z,29.30
2019-04-27T20:07:32.662Z,29.30
2019-04-27T20:10:04.145Z,29.20
2019-04-27T20:12:35.059Z,29.20
2019-04-27T20:15:07.813Z,29.20
2019-04-27T20:17:40.797Z,29.20
2019-04-27T20:20:11.528Z,29.20
2019-04-27T20:22:42.414Z,29.10
2019-04-27T20:25:13.421Z,29.10
2019-04-27T20:27:49.595Z,29.10
2019-04-27T20:30:16.926Z,29.00
2019-04-27T20:32:47.770Z,29.00
2019-04-27T20:35:18.722Z,29.00
2019-04-27T20:37:49.612Z,29.00
2019-04-27T20:40:21.798Z,28.90
2019-04-27T20:42:52.909Z,29.00
2019-04-27T20:45:23.759Z,28.90
2019-04-27T20:47:54.384Z,29.00
2019-04-27T20:50:25.263Z,28.90
2019-04-27T20:52:56.906Z,28.90
2019-04-27T20:55:27.798Z,28.90
2019-04-27T20:58:02.290Z,28.90
2019-04-27T21:00:32.010Z,28.90
2019-04-27T21:03:04.345Z,28.90
2019-04-27T21:05:36.580Z,28.90
2019-04-27T21:08:08.862Z,28.90
2019-04-27T21:10:40.810Z,28.90
2019-04-27T21:13:11.800Z,28.90
2019-04-27T21:15:44.040Z,28.90
2019-04-27T21:18:14.837Z,29.00
2019-04-27T21:20:45.534Z,28.90
2019-04-27T21:23:16.439Z,29.00
2019-04-27T21:25:47.292Z,29.00
2019-04-27T21:28:37.458Z,29.10
2019-04-27T21:31:08.305Z,29.10
2019-04-27T21:33:40.757Z,29.10
2019-04-27T21:36:11.724Z,29.10
2019-04-27T21:38:43.158Z,29.10
2019-04-27T21:41:13.908Z,29.10
2019-04-27T21:43:44.844Z,29.10
2019-04-27T21:46:15.696Z,29.10
2019-04-27T21:48:46.682Z,29.10
2019-04-27T21:51:17.647Z,29.10
2019-04-27T21:53:51.235Z,29.10
2019-04-27T21:56:22.384Z,29.10
2019-04-27T21:58:53.252Z,29.00
2019-04-27T22:01:31.811Z,29.00
2019-04-27T22:04:02.943Z,29.00
2019-04-27T22:06:33.904Z,28.90
2019-04-27T22:09:06.163Z,28.90
2019-04-27T22:11:37.118Z,28.90
2019-04-27T22:14:08.191Z,28.90
2019-04-27T22:16:39.065Z,28.80
2019-04-27T22:19:11.930Z,28.80
2019-04-27T22:21:43.610Z,28.80
2019-04-27T22:24:15.671Z,28.80
2019-04-27T22:26:46.625Z,28.80
